Crescent, Iowa
Current Conditions -  °F | °C
As of 6:52 AM on Wednesday 22 Oct 2014 (Local Time) from KOMA Reporting Station
Few Clouds Few Clouds  
Wind Chill: 55°   Ceiling: Unl
Heat Index: 55°   Visibility: 10mi
Dew Point: 44°   Wind: 16mph
Humidity: 67%   Direction: 150°SSE
Pressure: 30.11"   Gusts: NA
Location:  41.37°N, 95.86°W
Report Text: KOMA 221152Z 15014KT 10SM FEW070 13/07 A3011 RMK AO2 SLP193 T01280067 10139 20122 51002
Loading
Personal Weather Stations






























Interactive Weather Map
Tropical Storm Tracking
New forecast layout! Learn more

10-Day Weather Forecast

Advertisements
Track Severe Weather on mobile